EZY1224 EDDB-EDDV
Flight info
| Callsign | EZY1224 |
|---|---|
| Flight time | 0h 38m |
| Altitude | 24000 |
| Route | SUKIP3Q/06R SUKIP Y206 BUREL P203 HLZ HLZ1Z |
| Aircraft | A20N/M-SDE2E3FGHIRWXY/LB1 |
Departure
| Time | 2026-05-07 16:56 |
|---|---|
| Airport | Berlin Brandenburg Airport (EDDB) |
Arrival
| Time | 2026-05-07 17:35 |
|---|---|
| Airport | Hannover Airport (EDDV) |
| Time | Latitude | Longitude | Altitude | Speed | Heading |
|---|---|---|---|---|---|
| 2026-05-07 16:36 | 52.36343 | 13.50624 | 162 ft | 0 kts | 61° |
| 2026-05-07 16:45 | 52.36341 | 13.50617 | 162 ft | 3 kts | 61° |
| 2026-05-07 16:45 | 52.36332 | 13.50590 | 162 ft | 3 kts | 61° |
| 2026-05-07 16:45 | 52.36323 | 13.50564 | 162 ft | 3 kts | 61° |
| 2026-05-07 16:45 | 52.36314 | 13.50537 | 162 ft | 3 kts | 61° |
| 2026-05-07 16:46 | 52.36308 | 13.50510 | 162 ft | 3 kts | 81° |
| 2026-05-07 16:46 | 52.36309 | 13.50482 | 162 ft | 3 kts | 105° |
| 2026-05-07 16:46 | 52.36314 | 13.50454 | 162 ft | 2 kts | 112° |
| 2026-05-07 16:46 | 52.36320 | 13.50428 | 162 ft | 2 kts | 121° |
| 2026-05-07 16:47 | 52.36331 | 13.50406 | 162 ft | 2 kts | 137° |
| 2026-05-07 16:47 | 52.36335 | 13.50400 | 162 ft | 0 kts | 163° |
| 2026-05-07 16:48 | 52.36330 | 13.50402 | 162 ft | 3 kts | 164° |
| 2026-05-07 16:48 | 52.36290 | 13.50420 | 162 ft | 11 kts | 165° |
| 2026-05-07 16:48 | 52.36206 | 13.50467 | 162 ft | 13 kts | 159° |
| 2026-05-07 16:49 | 52.36118 | 13.50522 | 161 ft | 14 kts | 158° |
| 2026-05-07 16:49 | 52.36031 | 13.50582 | 161 ft | 14 kts | 156° |
| 2026-05-07 16:49 | 52.35945 | 13.50640 | 161 ft | 13 kts | 158° |
| 2026-05-07 16:49 | 52.35860 | 13.50657 | 161 ft | 12 kts | 185° |
| 2026-05-07 16:50 | 52.35778 | 13.50669 | 161 ft | 10 kts | 160° |
| 2026-05-07 16:50 | 52.35753 | 13.50682 | 161 ft | 1 kts | 172° |
| 2026-05-07 16:50 | 52.35751 | 13.50679 | 161 ft | 0 kts | 208° |
| 2026-05-07 16:50 | 52.35751 | 13.50673 | 161 ft | 0 kts | 250° |
| 2026-05-07 16:51 | 52.35752 | 13.50660 | 161 ft | 4 kts | 279° |
| 2026-05-07 16:51 | 52.35757 | 13.50604 | 161 ft | 5 kts | 273° |
| 2026-05-07 16:51 | 52.35749 | 13.50524 | 161 ft | 10 kts | 254° |
| 2026-05-07 16:51 | 52.35717 | 13.50383 | 161 ft | 18 kts | 249° |
| 2026-05-07 16:52 | 52.35672 | 13.50196 | 161 ft | 17 kts | 248° |
| 2026-05-07 16:52 | 52.35629 | 13.50011 | 161 ft | 17 kts | 250° |
| 2026-05-07 16:52 | 52.35586 | 13.49828 | 161 ft | 17 kts | 248° |
| 2026-05-07 16:52 | 52.35541 | 13.49649 | 161 ft | 17 kts | 248° |
| 2026-05-07 16:53 | 52.35499 | 13.49475 | 161 ft | 16 kts | 252° |
| 2026-05-07 16:53 | 52.35464 | 13.49309 | 161 ft | 15 kts | 250° |
| 2026-05-07 16:53 | 52.35425 | 13.49146 | 161 ft | 15 kts | 249° |
| 2026-05-07 16:53 | 52.35387 | 13.48987 | 161 ft | 15 kts | 249° |
| 2026-05-07 16:54 | 52.35349 | 13.48826 | 161 ft | 15 kts | 249° |
| 2026-05-07 16:54 | 52.35311 | 13.48667 | 161 ft | 15 kts | 250° |
| 2026-05-07 16:54 | 52.35268 | 13.48515 | 161 ft | 14 kts | 229° |
| 2026-05-07 16:54 | 52.35179 | 13.48503 | 161 ft | 13 kts | 159° |
| 2026-05-07 16:55 | 52.35111 | 13.48593 | 160 ft | 13 kts | 112° |
| 2026-05-07 16:55 | 52.35091 | 13.48738 | 159 ft | 13 kts | 97° |
| 2026-05-07 16:55 | 52.35081 | 13.48898 | 157 ft | 15 kts | 94° |
| 2026-05-07 16:55 | 52.35079 | 13.49068 | 157 ft | 15 kts | 85° |
| 2026-05-07 16:56 | 52.35114 | 13.49245 | 157 ft | 25 kts | 69° |
| 2026-05-07 16:56 | 52.35264 | 13.49879 | 156 ft | 93 kts | 69° |
| 2026-05-07 16:56 | 52.35954 | 13.52849 | 784 ft | 148 kts | 70° |
| 2026-05-07 16:57 | 52.36195 | 13.54508 | 1410 ft | 162 kts | 92° |
| 2026-05-07 16:57 | 52.35576 | 13.56147 | 1816 ft | 191 kts | 148° |
| 2026-05-07 16:57 | 52.34212 | 13.56263 | 2277 ft | 211 kts | 198° |
| 2026-05-07 16:57 | 52.32800 | 13.55341 | 2853 ft | 230 kts | 204° |
| 2026-05-07 16:58 | 52.31333 | 13.53951 | 3313 ft | 256 kts | 213° |
| 2026-05-07 16:58 | 52.29850 | 13.52223 | 4059 ft | 266 kts | 216° |
| 2026-05-07 16:58 | 52.28370 | 13.50389 | 5044 ft | 268 kts | 218° |
| 2026-05-07 16:58 | 52.27049 | 13.48231 | 5954 ft | 272 kts | 236° |
| 2026-05-07 16:59 | 52.26352 | 13.45368 | 6826 ft | 275 kts | 262° |
| 2026-05-07 16:59 | 52.26233 | 13.42242 | 7727 ft | 277 kts | 270° |
| 2026-05-07 16:59 | 52.26244 | 13.39080 | 8671 ft | 281 kts | 271° |
| 2026-05-07 16:59 | 52.26267 | 13.35877 | 9631 ft | 283 kts | 271° |
| 2026-05-07 17:00 | 52.26282 | 13.32650 | 10534 ft | 286 kts | 271° |
| 2026-05-07 17:00 | 52.26289 | 13.29383 | 11374 ft | 290 kts | 270° |
| 2026-05-07 17:00 | 52.26291 | 13.26065 | 12238 ft | 294 kts | 270° |
| 2026-05-07 17:00 | 52.26112 | 13.22724 | 13141 ft | 297 kts | 256° |
| 2026-05-07 17:01 | 52.25358 | 13.19545 | 13822 ft | 309 kts | 242° |
| 2026-05-07 17:01 | 52.24249 | 13.16405 | 14175 ft | 330 kts | 238° |
| 2026-05-07 17:01 | 52.23005 | 13.13129 | 14575 ft | 347 kts | 238° |
| 2026-05-07 17:01 | 52.21718 | 13.09745 | 15199 ft | 355 kts | 238° |
| 2026-05-07 17:02 | 52.20412 | 13.06289 | 15937 ft | 360 kts | 238° |
| 2026-05-07 17:02 | 52.19092 | 13.02781 | 16672 ft | 366 kts | 239° |
| 2026-05-07 17:02 | 52.17776 | 12.99271 | 17398 ft | 370 kts | 239° |
| 2026-05-07 17:02 | 52.16569 | 12.95541 | 18106 ft | 375 kts | 249° |
| 2026-05-07 17:03 | 52.15788 | 12.91415 | 18772 ft | 379 kts | 256° |
| 2026-05-07 17:03 | 52.15189 | 12.87276 | 19407 ft | 382 kts | 258° |
| 2026-05-07 17:03 | 52.14604 | 12.83033 | 20059 ft | 385 kts | 258° |
| 2026-05-07 17:03 | 52.14013 | 12.78762 | 20721 ft | 389 kts | 258° |
| 2026-05-07 17:04 | 52.13566 | 12.74413 | 21374 ft | 391 kts | 267° |
| 2026-05-07 17:04 | 52.13684 | 12.69996 | 21983 ft | 393 kts | 281° |
| 2026-05-07 17:04 | 52.14502 | 12.65759 | 22592 ft | 394 kts | 296° |
| 2026-05-07 17:04 | 52.15987 | 12.62006 | 23174 ft | 396 kts | 311° |
| 2026-05-07 17:05 | 52.17929 | 12.58807 | 23726 ft | 400 kts | 317° |
| 2026-05-07 17:05 | 52.20000 | 12.55750 | 24000 ft | 402 kts | 319° |
| 2026-05-07 17:05 | 52.22086 | 12.52711 | 24054 ft | 402 kts | 319° |
| 2026-05-07 17:05 | 52.24094 | 12.49535 | 24059 ft | 403 kts | 311° |
| 2026-05-07 17:06 | 52.25690 | 12.45778 | 24062 ft | 404 kts | 298° |
| 2026-05-07 17:06 | 52.26717 | 12.41511 | 24062 ft | 405 kts | 288° |
| 2026-05-07 17:06 | 52.27485 | 12.37081 | 24061 ft | 405 kts | 285° |
| 2026-05-07 17:06 | 52.28128 | 12.32603 | 24062 ft | 406 kts | 283° |
| 2026-05-07 17:07 | 52.28717 | 12.28092 | 24061 ft | 406 kts | 283° |
| 2026-05-07 17:07 | 52.29294 | 12.23581 | 24061 ft | 406 kts | 283° |
| 2026-05-07 17:07 | 52.29879 | 12.19067 | 24062 ft | 406 kts | 283° |
| 2026-05-07 17:07 | 52.30476 | 12.14563 | 24064 ft | 406 kts | 283° |
| 2026-05-07 17:08 | 52.31085 | 12.10057 | 24064 ft | 406 kts | 283° |
| 2026-05-07 17:08 | 52.31700 | 12.05561 | 24064 ft | 406 kts | 283° |
| 2026-05-07 17:08 | 52.32319 | 12.01061 | 24064 ft | 406 kts | 283° |
| 2026-05-07 17:08 | 52.32939 | 11.96559 | 24064 ft | 406 kts | 283° |
| 2026-05-07 17:09 | 52.33557 | 11.92062 | 24067 ft | 405 kts | 283° |
| 2026-05-07 17:09 | 52.34153 | 11.87569 | 24064 ft | 404 kts | 279° |
| 2026-05-07 17:09 | 52.34427 | 11.83000 | 24067 ft | 404 kts | 274° |
| 2026-05-07 17:09 | 52.34576 | 11.78413 | 24067 ft | 404 kts | 273° |
| 2026-05-07 17:10 | 52.34694 | 11.73823 | 24070 ft | 404 kts | 272° |
| 2026-05-07 17:10 | 52.34798 | 11.69231 | 24070 ft | 404 kts | 272° |
| 2026-05-07 17:10 | 52.34897 | 11.64642 | 24070 ft | 404 kts | 272° |
| 2026-05-07 17:10 | 52.34992 | 11.60053 | 24069 ft | 404 kts | 272° |
| 2026-05-07 17:11 | 52.35084 | 11.55523 | 24075 ft | 404 kts | 272° |
| 2026-05-07 17:11 | 52.35174 | 11.50932 | 24076 ft | 404 kts | 272° |
| 2026-05-07 17:11 | 52.35263 | 11.46342 | 24076 ft | 404 kts | 272° |
| 2026-05-07 17:11 | 52.35349 | 11.41757 | 24075 ft | 403 kts | 272° |
| 2026-05-07 17:12 | 52.35433 | 11.37183 | 24072 ft | 402 kts | 272° |
| 2026-05-07 17:12 | 52.35516 | 11.32619 | 24075 ft | 402 kts | 272° |
| 2026-05-07 17:12 | 52.35596 | 11.28053 | 24075 ft | 402 kts | 272° |
| 2026-05-07 17:12 | 52.35675 | 11.23487 | 24075 ft | 402 kts | 272° |
| 2026-05-07 17:13 | 52.35752 | 11.18921 | 24075 ft | 402 kts | 271° |
| 2026-05-07 17:13 | 52.35827 | 11.14356 | 24075 ft | 401 kts | 271° |
| 2026-05-07 17:13 | 52.35900 | 11.09790 | 24078 ft | 401 kts | 271° |
| 2026-05-07 17:13 | 52.35972 | 11.05224 | 24081 ft | 401 kts | 271° |
| 2026-05-07 17:14 | 52.36042 | 11.00659 | 24085 ft | 401 kts | 271° |
| 2026-05-07 17:14 | 52.36110 | 10.96097 | 24088 ft | 402 kts | 271° |
| 2026-05-07 17:14 | 52.36177 | 10.91526 | 24090 ft | 402 kts | 271° |
| 2026-05-07 17:14 | 52.36242 | 10.86956 | 24093 ft | 402 kts | 271° |
| 2026-05-07 17:15 | 52.36342 | 10.82392 | 24096 ft | 402 kts | 275° |
| 2026-05-07 17:15 | 52.36906 | 10.77924 | 24100 ft | 402 kts | 287° |
| 2026-05-07 17:15 | 52.37854 | 10.73632 | 24087 ft | 401 kts | 292° |
| 2026-05-07 17:15 | 52.38971 | 10.69483 | 23738 ft | 396 kts | 294° |
| 2026-05-07 17:16 | 52.40132 | 10.65443 | 23368 ft | 388 kts | 295° |
| 2026-05-07 17:16 | 52.41294 | 10.61517 | 23135 ft | 378 kts | 295° |
| 2026-05-07 17:16 | 52.42438 | 10.57707 | 22927 ft | 368 kts | 296° |
| 2026-05-07 17:16 | 52.43557 | 10.54005 | 22723 ft | 357 kts | 296° |
| 2026-05-07 17:17 | 52.44653 | 10.50390 | 22371 ft | 352 kts | 296° |
| 2026-05-07 17:17 | 52.45737 | 10.46817 | 21966 ft | 348 kts | 296° |
| 2026-05-07 17:17 | 52.46741 | 10.43510 | 21582 ft | 341 kts | 296° |
| 2026-05-07 17:17 | 52.47784 | 10.40072 | 21189 ft | 334 kts | 296° |
| 2026-05-07 17:18 | 52.48819 | 10.36658 | 20807 ft | 334 kts | 296° |
| 2026-05-07 17:18 | 52.49851 | 10.33249 | 20427 ft | 333 kts | 296° |
| 2026-05-07 17:18 | 52.50877 | 10.29857 | 20029 ft | 331 kts | 296° |
| 2026-05-07 17:18 | 52.51895 | 10.26486 | 19662 ft | 328 kts | 296° |
| 2026-05-07 17:19 | 52.52905 | 10.23137 | 19298 ft | 326 kts | 296° |
| 2026-05-07 17:19 | 52.53908 | 10.19806 | 18941 ft | 325 kts | 296° |
| 2026-05-07 17:19 | 52.54900 | 10.16510 | 18729 ft | 318 kts | 296° |
| 2026-05-07 17:19 | 52.55863 | 10.13306 | 18478 ft | 308 kts | 296° |
| 2026-05-07 17:20 | 52.56798 | 10.10188 | 18096 ft | 301 kts | 296° |
| 2026-05-07 17:20 | 52.57704 | 10.07123 | 17683 ft | 294 kts | 292° |
| 2026-05-07 17:20 | 52.58234 | 10.03930 | 17273 ft | 287 kts | 277° |
| 2026-05-07 17:20 | 52.58434 | 10.00704 | 16876 ft | 281 kts | 274° |
| 2026-05-07 17:21 | 52.58583 | 9.97534 | 16482 ft | 276 kts | 274° |
| 2026-05-07 17:21 | 52.58722 | 9.94409 | 16096 ft | 273 kts | 274° |
| 2026-05-07 17:21 | 52.58859 | 9.91300 | 15723 ft | 273 kts | 274° |
| 2026-05-07 17:21 | 52.58993 | 9.88190 | 15345 ft | 273 kts | 274° |
| 2026-05-07 17:22 | 52.59125 | 9.85081 | 14977 ft | 273 kts | 274° |
| 2026-05-07 17:22 | 52.59254 | 9.81969 | 14610 ft | 273 kts | 274° |
| 2026-05-07 17:22 | 52.59382 | 9.78859 | 14253 ft | 273 kts | 274° |
| 2026-05-07 17:22 | 52.59466 | 9.76791 | 14037 ft | 274 kts | 274° |
| 2026-05-07 17:23 | 52.59591 | 9.73664 | 13657 ft | 275 kts | 274° |
| 2026-05-07 17:23 | 52.59713 | 9.70526 | 13257 ft | 275 kts | 274° |
| 2026-05-07 17:23 | 52.59836 | 9.67380 | 12855 ft | 276 kts | 274° |
| 2026-05-07 17:23 | 52.59958 | 9.64230 | 12460 ft | 276 kts | 274° |
| 2026-05-07 17:24 | 52.60082 | 9.61041 | 11864 ft | 283 kts | 274° |
| 2026-05-07 17:24 | 52.60207 | 9.57790 | 11235 ft | 286 kts | 274° |
| 2026-05-07 17:24 | 52.60334 | 9.54512 | 10611 ft | 288 kts | 274° |
| 2026-05-07 17:24 | 52.60461 | 9.51219 | 10002 ft | 289 kts | 274° |
| 2026-05-07 17:25 | 52.60587 | 9.47921 | 9334 ft | 289 kts | 274° |
| 2026-05-07 17:25 | 52.60712 | 9.44630 | 8677 ft | 288 kts | 274° |
| 2026-05-07 17:25 | 52.60830 | 9.41343 | 8029 ft | 288 kts | 274° |
| 2026-05-07 17:25 | 52.60945 | 9.38060 | 7397 ft | 287 kts | 274° |
| 2026-05-07 17:26 | 52.61058 | 9.34786 | 6764 ft | 286 kts | 274° |
| 2026-05-07 17:26 | 52.61234 | 9.31541 | 6200 ft | 280 kts | 280° |
| 2026-05-07 17:26 | 52.61343 | 9.28395 | 5644 ft | 275 kts | 272° |
| 2026-05-07 17:26 | 52.61237 | 9.25273 | 5144 ft | 271 kts | 254° |
| 2026-05-07 17:27 | 52.60362 | 9.22673 | 4984 ft | 252 kts | 223° |
| 2026-05-07 17:27 | 52.58925 | 9.21253 | 4976 ft | 239 kts | 193° |
| 2026-05-07 17:27 | 52.57292 | 9.20702 | 5011 ft | 240 kts | 185° |
| 2026-05-07 17:27 | 52.55648 | 9.20349 | 5001 ft | 238 kts | 184° |
| 2026-05-07 17:28 | 52.53995 | 9.20012 | 4991 ft | 240 kts | 183° |
| 2026-05-07 17:28 | 52.52340 | 9.19754 | 4987 ft | 238 kts | 174° |
| 2026-05-07 17:28 | 52.50810 | 9.20549 | 4887 ft | 229 kts | 143° |
| 2026-05-07 17:28 | 52.49672 | 9.22324 | 4435 ft | 224 kts | 126° |
| 2026-05-07 17:29 | 52.48715 | 9.24323 | 4004 ft | 222 kts | 124° |
| 2026-05-07 17:29 | 52.47781 | 9.26332 | 3577 ft | 220 kts | 124° |
| 2026-05-07 17:29 | 52.46945 | 9.28395 | 3155 ft | 214 kts | 110° |
| 2026-05-07 17:29 | 52.46569 | 9.30736 | 3003 ft | 213 kts | 96° |
| 2026-05-07 17:30 | 52.46452 | 9.33155 | 2989 ft | 213 kts | 91° |
| 2026-05-07 17:30 | 52.46393 | 9.35509 | 2977 ft | 197 kts | 91° |
| 2026-05-07 17:30 | 52.46336 | 9.37619 | 2987 ft | 173 kts | 91° |
| 2026-05-07 17:30 | 52.46281 | 9.39470 | 2981 ft | 154 kts | 91° |
| 2026-05-07 17:31 | 52.46229 | 9.41204 | 3001 ft | 151 kts | 91° |
| 2026-05-07 17:31 | 52.46180 | 9.42908 | 3028 ft | 148 kts | 91° |
| 2026-05-07 17:31 | 52.46133 | 9.44598 | 3002 ft | 149 kts | 90° |
| 2026-05-07 17:31 | 52.46089 | 9.46280 | 2853 ft | 150 kts | 91° |
| 2026-05-07 17:32 | 52.46042 | 9.48008 | 2623 ft | 150 kts | 91° |
| 2026-05-07 17:32 | 52.45995 | 9.49717 | 2416 ft | 150 kts | 91° |
| 2026-05-07 17:32 | 52.45948 | 9.51411 | 2206 ft | 150 kts | 92° |
| 2026-05-07 17:32 | 52.45902 | 9.53064 | 1996 ft | 140 kts | 92° |
| 2026-05-07 17:33 | 52.45858 | 9.54642 | 1803 ft | 138 kts | 92° |
| 2026-05-07 17:33 | 52.45827 | 9.56215 | 1592 ft | 138 kts | 91° |
| 2026-05-07 17:33 | 52.45798 | 9.57786 | 1388 ft | 137 kts | 93° |
| 2026-05-07 17:33 | 52.45732 | 9.59353 | 1212 ft | 138 kts | 94° |
| 2026-05-07 17:34 | 52.45680 | 9.60922 | 1037 ft | 138 kts | 93° |
| 2026-05-07 17:34 | 52.45642 | 9.62491 | 830 ft | 138 kts | 92° |
| 2026-05-07 17:34 | 52.45614 | 9.64078 | 650 ft | 140 kts | 92° |
| 2026-05-07 17:34 | 52.45558 | 9.65681 | 474 ft | 142 kts | 92° |
| 2026-05-07 17:35 | 52.45505 | 9.67301 | 282 ft | 142 kts | 94° |
| 2026-05-07 17:35 | 52.45458 | 9.68851 | 197 ft | 109 kts | 93° |
| 2026-05-07 17:35 | 52.45447 | 9.69525 | 187 ft | 36 kts | 92° |
| 2026-05-07 17:35 | 52.45432 | 9.69991 | 180 ft | 48 kts | 93° |
| 2026-05-07 17:36 | 52.45417 | 9.70512 | 182 ft | 30 kts | 91° |
| 2026-05-07 17:36 | 52.45485 | 9.70669 | 182 ft | 12 kts | 5° |
| 2026-05-07 17:36 | 52.45527 | 9.70673 | 182 ft | 0 kts | 2° |
| 2026-05-07 17:37 | 52.45533 | 9.70672 | 182 ft | 5 kts | 357° |
| 2026-05-07 17:37 | 52.45568 | 9.70659 | 183 ft | 4 kts | 348° |
| 2026-05-07 17:38 | 52.45638 | 9.70621 | 181 ft | 13 kts | 311° |
| 2026-05-07 17:38 | 52.45657 | 9.70478 | 182 ft | 12 kts | 272° |
| 2026-05-07 17:38 | 52.45658 | 9.70348 | 190 ft | 10 kts | 269° |
| 2026-05-07 17:38 | 52.45660 | 9.70238 | 192 ft | 9 kts | 272° |
| 2026-05-07 17:39 | 52.45664 | 9.70136 | 185 ft | 9 kts | 274° |
| 2026-05-07 17:39 | 52.45667 | 9.70032 | 195 ft | 9 kts | 273° |
| 2026-05-07 17:39 | 52.45671 | 9.69926 | 197 ft | 9 kts | 273° |
| 2026-05-07 17:39 | 52.45674 | 9.69821 | 196 ft | 9 kts | 272° |
| 2026-05-07 17:40 | 52.45680 | 9.69723 | 192 ft | 5 kts | 301° |
| 2026-05-07 17:40 | 52.45693 | 9.69697 | 184 ft | 2 kts | 338° |
| 2026-05-07 17:40 | 52.45706 | 9.69699 | 183 ft | 2 kts | 11° |
| 2026-05-07 17:40 | 52.45725 | 9.69704 | 183 ft | 3 kts | 1° |
| 2026-05-07 17:41 | 52.45735 | 9.69704 | 183 ft | 0 kts | 360° |